• Join FlightAware (Why Join?)
  • Login
  • US Flag 
Gobble Gobble! 
03:29AM EST


 

Airport Tracker/Info


-or-


 

Live Flight TrackerFlight Track Log ✈ N84RT ✈ 13-May-2014 ✈ 2R4 - KLAL

Flight Track Log - Related Links

Times and Time Zones

All times are in EDT time to prevent confusion due to time zone crossing. See the N84RT flight status page for this flight to view local times or setup timezone preferences in your user account.

Time Position Orientation Groundspeed Altitude Reporting Facility
EDT Latitude Longitude Course Direction KTS MPH feet Rate Location/Type
03:51PM 30.5781 -87.0039 187° South 138 159 1,100  Level Jacksonville Center
03:51PM 30.5508 -87.0075 187° South 162 186 1,200 540 Climbing Jacksonville Center
03:53PM 30.5036 -86.9839 157° South 138 159 2,100 840 Climbing Jacksonville Center
03:54PM 30.4725 -86.9753 167° South 137 158 3,000 120 Climbing Jacksonville Center
04:49PM 29.8261 -84.1375 105° East 182 209 9,100 60 Climbing Jacksonville Center
04:50PM 29.7846 -83.8685 105° East  Level FlightAware Approximate
04:50PM 29.8142 -84.0847 105° East 182 209 9,000  Level Jacksonville Center
04:51PM 29.7714 -83.8129 105° East  Level FlightAware Approximate
04:51PM 29.8022 -84.0294 104° East 177 204 9,100  Level Jacksonville Center
04:52PM 29.7582 -83.7573 105° East  Level FlightAware Approximate
04:52PM 29.7922 -83.9767 102° East 177 204 9,100  Level Jacksonville Center
04:53PM 29.7449 -83.7017 105° East  Level FlightAware Approximate
04:53PM 29.7800 -83.9217 104° East 177 204 9,100  Level Jacksonville Center
04:54PM 29.7700 -83.8689 102° East 177 204 9,100  Level Jacksonville Center
04:55PM 29.7581 -83.8136 104° East 172 198 9,100  Level Jacksonville Center
04:56PM 29.7478 -83.7586 102° East 172 198 9,100 -60 Level Jacksonville Center
04:57PM 29.7358 -83.7058 105° East 172 198 9,000  Descending Jacksonville Center
04:58PM 29.7256 -83.6508 102° East 167 192 9,100  Climbing Jacksonville Center
04:59PM 29.7133 -83.5981 105° East 167 192 9,100  Level Jacksonville Center
05:00PM 29.7011 -83.5431 104° East 167 192 9,100 -60 Level Jacksonville Center
05:01PM 29.6889 -83.4903 105° East 167 192 9,000  Descending Jacksonville Center
05:02PM 29.6786 -83.4353 102° East 167 192 9,100  Climbing Jacksonville Center
05:03PM 29.6664 -83.3803 104° East 167 192 9,100  Level Jacksonville Center
05:04PM 29.6542 -83.3275 105° East 167 192 9,100 -60 Level Jacksonville Center
05:05PM 29.6439 -83.2725 102° East 167 192 9,000  Descending Jacksonville Center
05:06PM 29.6336 -83.2175 102° East 173 199 9,200 60 Climbing Jacksonville Center
05:07PM 29.6211 -83.1625 105° East 168 193 9,200  Level Jacksonville Center
05:08PM 29.6086 -83.1075 105° East 168 193 9,200  Level Jacksonville Center
05:08PM 29.6025 -83.0883 110° East 178 205 9,200 -120 Level Jacksonville Center
05:09PM 29.5961 -83.0525 102° East 168 193 9,100  Descending Jacksonville Center
05:10PM 29.5650 -83.0239 141° Southeast 153 176 9,200  Climbing Jacksonville Center
05:11PM 29.5211 -83.0000 155° Southeast 159 183 9,200  Level Jacksonville Center
05:12PM 29.4669 -82.9642 150° Southeast 172 198 9,200  Level Jacksonville Center
05:13PM 29.4272 -82.9378 150° Southeast 173 199 9,200  Level Jacksonville Center
05:14PM 29.3856 -82.9117 151° Southeast 178 205 9,200  Level Jacksonville Center
05:15PM 29.3436 -82.8831 149° Southeast 178 205 9,200 -120 Level Jacksonville Center
05:16PM 29.3042 -82.8569 150° Southeast 178 205 9,000 -300 Descending Jacksonville Center
05:17PM 29.2603 -82.8258 148° Southeast 178 205 8,700 -360 Descending Jacksonville Center
05:17PM 29.2539 -82.8211 147° Southeast 185 213 8,600 -420 Descending Jacksonville Center
05:18PM 29.2183 -82.7928 145° Southeast 183 211 8,300 -300 Descending Jacksonville Center
05:18PM 29.2100 -82.7928 180° South 182 209 8,300 -420 Level Jacksonville Center
05:19PM 29.1619 -82.7642 153° Southeast 180 207 7,800 -540 Descending Jacksonville Center
05:20PM 29.1308 -82.7428 149° Southeast 182 209 7,400 -420 Descending Jacksonville Center
05:21PM 29.0786 -82.7072 149° Southeast 180 207 7,000 -480 Descending Jacksonville Center
05:22PM 29.0367 -82.6811 151° Southeast 176 203 6,500 -540 Descending Jacksonville Center
05:23PM 28.9928 -82.6553 153° Southeast 177 204 6,000 -600 Descending Jacksonville Center
05:24PM 28.9489 -82.6292 152° Southeast 176 203 5,400 -420 Descending Jacksonville Center
05:25PM 28.9031 -82.5983 150° Southeast 171 197 5,200 -120 Descending Jacksonville Center
05:26PM 28.8653 -82.5703 147° Southeast 159 183 5,200  Level Jacksonville Center
05:27PM 28.8256 -82.5467 152° Southeast 160 184 5,200  Level Jacksonville Center
05:28PM 28.7922 -82.5278 154° Southeast 155 178 5,200 -60 Level Jacksonville Center
05:30PM 28.7133 -82.4739 149° Southeast 156 180 5,100 -60 Descending Miami Center
05:31PM 28.6747 -82.4500 152° Southeast 156 180 5,100  Level Miami Center
05:32PM 28.6367 -82.4258 151° Southeast 156 180 5,100  Level Miami Center
05:34PM 28.5992 -82.4019 151° Southeast 156 180 5,100  Level Miami Center
05:35PM 28.5636 -82.3806 152° Southeast 156 180 5,100  Level Miami Center
05:36PM 28.5161 -82.3553 155° Southeast 157 181 5,100  Level Miami Center
05:37PM 28.4667 -82.3333 159° South 153 176 5,100  Level Tampa TRACON
05:38PM 28.4333 -82.3000 139° Southeast 156 180 5,100  Level Tampa TRACON
05:38PM 28.4000 -82.2833 156° South 153 176 5,100  Level Tampa TRACON
05:40PM 28.3500 -82.2667 164° South 155 178 5,100  Level Tampa TRACON
05:40PM 28.3333 -82.2500 139° Southeast 156 180 5,100 -360 Level Tampa TRACON
05:42PM 28.2833 -82.2167 150° Southeast 171 197 4,500 -420 Descending Tampa TRACON
05:43PM 28.2333 -82.2000 164° South 169 194 4,200 -360 Descending Tampa TRACON
05:44PM 28.2000 -82.1833 156° South 163 188 3,800 -540 Descending Tampa TRACON
05:45PM 28.1500 -82.1500 150° Southeast 168 193 3,200 -540 Descending Tampa TRACON
05:46PM 28.1167 -82.1333 156° South 163 188 2,800 -420 Descending Tampa TRACON
05:47PM 28.0667 -82.1167 164° South 153 176 2,400 -360 Descending Tampa TRACON
05:48PM 28.0333 -82.1000 156° South 143 165 2,100 -360 Descending Tampa TRACON
05:49PM 28.0000 -82.1000 180° South 105 121 1,700 -480 Descending Tampa TRACON
05:50PM 27.9833 -82.0833 139° Southeast 97 112 1,200 -540 Descending Tampa TRACON
05:51PM 27.9833 -82.0500 90° East 88 101 700 -540 Descending Tampa TRACON
05:53PM 27.9833 -82.0167 156° South  Level FlightAware Approximate
06:00PM 27.9889 -82.0186 156° South  Level Estimated